Time,TemperatureF,DewpointF,PressureIn,WindDirection,WindDirectionDegrees,WindSpeedMPH,WindSpeedGustMPH,Humidity,HourlyPrecipIn,Conditions,Clouds,dailyrainin,SoftwareType,DateUTC
2013-06-14 00:04:00,46.4,44.0,30.18,NE,39,1.0,5.0,92,0.00,,,0.00,weatherlink.com 1.10,2013-06-14 09:04:00,
2013-06-14 00:19:00,46.0,44.0,30.19,NE,39,2.0,2.0,91,0.00,,,0.00,weatherlink.com 1.10,2013-06-14 09:19:00,
2013-06-14 00:34:00,45.7,44.0,30.18,NE,39,0.0,2.0,92,0.00,,,0.00,weatherlink.com 1.10,2013-06-14 09:34:00,
2013-06-14 00:49:00,45.5,43.0,30.18,ESE,106,2.0,4.0,92,0.00,,,0.00,weatherlink.com 1.10,2013-06-14 09:49:00,
2013-06-14 01:04:00,45.8,44.0,30.18,SE,136,5.0,6.0,93,0.00,,,0.00,weatherlink.com 1.10,2013-06-14 10:04:00,
2013-06-14 01:19:00,46.0,44.0,30.18,SE,144,1.0,8.0,93,0.00,,,0.00,weatherlink.com 1.10,2013-06-14 10:19:00,
2013-06-14 01:34:00,45.5,44.0,30.19,SSE,152,2.0,3.0,93,0.00,,,0.00,weatherlink.com 1.10,2013-06-14 10:34:00,
2013-06-14 01:49:00,45.4,44.0,30.19,SSE,152,1.0,4.0,93,0.00,,,0.00,weatherlink.com 1.10,2013-06-14 10:49:00,
2013-06-14 02:04:00,44.5,42.0,30.19,SSE,152,0.0,2.0,92,0.00,,,0.00,weatherlink.com 1.10,2013-06-14 11:04:00,
2013-06-14 02:19:00,44.2,42.0,30.19,SSE,152,2.0,2.0,93,0.00,,,0.00,weatherlink.com 1.10,2013-06-14 11:19:00,
2013-06-14 02:34:00,43.8,42.0,30.19,SSE,152,1.0,2.0,93,0.00,,,0.00,weatherlink.com 1.10,2013-06-14 11:34:00,
2013-06-14 02:49:00,43.5,41.0,30.19,ENE,74,1.0,5.0,92,0.00,,,0.00,weatherlink.com 1.10,2013-06-14 11:49:00,
2013-06-14 03:04:00,42.9,41.0,30.19,ENE,74,0.0,5.0,93,0.00,,,0.00,weatherlink.com 1.10,2013-06-14 12:04:00,
2013-06-14 03:19:00,42.5,41.0,30.19,ENE,74,2.0,2.0,93,0.00,,,0.00,weatherlink.com 1.10,2013-06-14 12:19:00,
2013-06-14 03:34:00,42.2,40.0,30.19,East,101,2.0,5.0,93,0.00,,,0.00,weatherlink.com 1.10,2013-06-14 12:34:00,
2013-06-14 03:49:00,42.2,40.0,30.18,East,101,1.0,1.0,93,0.00,,,0.00,weatherlink.com 1.10,2013-06-14 12:49:00,
2013-06-14 04:04:00,42.2,40.0,30.18,East,101,0.0,1.0,93,0.00,,,0.00,weatherlink.com 1.10,2013-06-14 13:04:00,
2013-06-14 04:19:00,42.1,41.0,30.19,East,101,1.0,1.0,94,0.00,,,0.00,weatherlink.com 1.10,2013-06-14 13:19:00,
2013-06-14 04:34:00,41.7,40.0,30.19,East,101,0.0,2.0,93,0.00,,,0.00,weatherlink.com 1.10,2013-06-14 13:34:00,
2013-06-14 04:49:00,41.6,40.0,30.19,East,101,0.0,2.0,94,0.00,,,0.00,weatherlink.com 1.10,2013-06-14 13:49:00,
2013-06-14 05:04:00,41.4,40.0,30.20,East,101,2.0,3.0,94,0.00,,,0.00,weatherlink.com 1.10,2013-06-14 14:04:00,
2013-06-14 05:19:00,41.8,40.0,30.20,East,101,1.0,2.0,94,0.00,,,0.00,weatherlink.com 1.10,2013-06-14 14:19:00,
2013-06-14 05:34:00,41.8,40.0,30.20,East,101,0.0,3.0,94,0.00,,,0.00,weatherlink.com 1.10,2013-06-14 14:34:00,
2013-06-14 05:49:00,41.9,40.0,30.20,East,101,0.0,4.0,94,0.00,,,0.00,weatherlink.com 1.10,2013-06-14 14:49:00,
2013-06-14 06:04:00,42.4,41.0,30.20,ESE,114,1.0,6.0,94,0.00,,,0.00,weatherlink.com 1.10,2013-06-14 15:04:00,
2013-06-14 06:19:00,43.2,42.0,30.20,ESE,114,0.0,2.0,94,0.00,,,0.00,weatherlink.com 1.10,2013-06-14 15:19:00,
2013-06-14 06:35:00,43.4,42.0,30.20,ESE,114,0.0,4.0,94,0.00,,,0.00,weatherlink.com 1.10,2013-06-14 15:35:00,
2013-06-14 06:50:00,44.1,42.0,30.20,ESE,114,0.0,2.0,93,0.00,,,0.00,weatherlink.com 1.10,2013-06-14 15:50:00,
2013-06-14 07:05:00,44.3,42.0,30.20,ESE,114,0.0,2.0,93,0.00,,,0.00,weatherlink.com 1.10,2013-06-14 16:05:00,
2013-06-14 07:20:00,44.4,43.0,30.20,ESE,114,3.0,3.0,93,0.00,,,0.00,weatherlink.com 1.10,2013-06-14 16:20:00,
2013-06-14 07:35:00,44.7,43.0,30.20,ESE,114,4.0,4.0,94,0.00,,,0.00,weatherlink.com 1.10,2013-06-14 16:35:00,
2013-06-14 07:50:00,45.0,44.0,30.20,West,277,5.0,7.0,95,0.00,,,0.00,weatherlink.com 1.10,2013-06-14 16:50:00,
2013-06-14 08:05:00,44.7,43.0,30.20,WNW,284,7.0,9.0,95,0.00,,,0.00,weatherlink.com 1.10,2013-06-14 17:05:00,
2013-06-14 08:20:00,44.9,44.0,30.20,West,279,4.0,8.0,96,0.00,,,0.00,weatherlink.com 1.10,2013-06-14 17:20:00,
2013-06-14 08:35:00,44.9,44.0,30.20,WNW,282,4.0,7.0,96,0.00,,,0.00,weatherlink.com 1.10,2013-06-14 17:35:00,
2013-06-14 08:50:00,45.1,44.0,30.20,West,281,3.0,6.0,96,0.00,,,0.00,weatherlink.com 1.10,2013-06-14 17:50:00,
2013-06-14 09:05:00,44.9,44.0,30.20,West,279,6.0,7.0,96,0.00,,,0.00,weatherlink.com 1.10,2013-06-14 18:05:00,
2013-06-14 09:20:00,45.1,44.0,30.20,WNW,296,2.0,8.0,96,0.00,,,0.00,weatherlink.com 1.10,2013-06-14 18:20:00,
2013-06-14 09:35:00,45.1,44.0,30.20,WNW,294,4.0,7.0,96,0.00,,,0.00,weatherlink.com 1.10,2013-06-14 18:35:00,
2013-06-14 09:50:00,44.3,43.0,30.20,WSW,253,7.0,10.0,96,0.00,,,0.00,weatherlink.com 1.10,2013-06-14 18:50:00,
2013-06-14 10:05:00,44.5,44.0,30.20,WSW,250,3.0,9.0,97,0.00,,,0.00,weatherlink.com 1.10,2013-06-14 19:05:00,
2013-06-14 10:20:00,44.3,43.0,30.20,West,276,5.0,8.0,96,0.00,,,0.00,weatherlink.com 1.10,2013-06-14 19:20:00,
2013-06-14 10:35:00,44.3,43.0,30.20,West,276,4.0,8.0,96,0.00,,,0.00,weatherlink.com 1.10,2013-06-14 19:35:00,
2013-06-14 10:50:00,44.6,44.0,30.20,WNW,285,5.0,8.0,97,0.00,,,0.00,weatherlink.com 1.10,2013-06-14 19:50:00,
2013-06-14 11:05:00,45.6,45.0,30.20,West,277,6.0,6.0,97,0.00,,,0.00,weatherlink.com 1.10,2013-06-14 20:05:00,
2013-06-14 11:20:00,46.8,46.0,30.20,West,273,5.0,8.0,97,0.00,,,0.00,weatherlink.com 1.10,2013-06-14 20:20:00,
2013-06-14 11:35:00,48.4,47.0,30.20,WNW,284,1.0,8.0,96,0.00,,,0.00,weatherlink.com 1.10,2013-06-14 20:35:00,
2013-06-14 11:50:00,50.4,48.0,30.20,NW,306,5.0,9.0,92,0.00,,,0.00,weatherlink.com 1.10,2013-06-14 20:50:00,
2013-06-14 12:05:00,52.1,48.0,30.19,NW,314,6.0,9.0,87,0.00,,,0.00,weatherlink.com 1.10,2013-06-14 21:05:00,
2013-06-14 12:21:00,53.5,49.0,30.20,West,278,5.0,10.0,83,0.00,,,0.00,weatherlink.com 1.10,2013-06-14 21:21:00,
2013-06-14 12:36:00,54.7,49.0,30.20,West,277,6.0,11.0,80,0.00,,,0.00,weatherlink.com 1.10,2013-06-14 21:36:00,
2013-06-14 12:51:00,55.0,48.0,30.19,West,279,9.0,10.0,78,0.00,,,0.00,weatherlink.com 1.10,2013-06-14 21:51:00,
2013-06-14 13:06:00,55.2,48.0,30.20,NW,312,4.0,11.0,78,0.00,,,0.00,weatherlink.com 1.10,2013-06-14 22:06:00,
2013-06-14 13:21:00,55.7,49.0,30.19,NW,309,7.0,11.0,77,0.00,,,0.00,weatherlink.com 1.10,2013-06-14 22:21:00,
2013-06-14 13:36:00,56.0,49.0,30.19,NW,308,4.0,12.0,77,0.00,,,0.00,weatherlink.com 1.10,2013-06-14 22:36:00,
2013-06-14 13:51:00,60.9,51.0,30.19,NNW,333,2.0,11.0,69,0.00,,,0.00,weatherlink.com 1.10,2013-06-14 22:51:00,
2013-06-14 14:06:00,59.1,49.0,30.19,NW,310,8.0,10.0,70,0.00,,,0.00,weatherlink.com 1.10,2013-06-14 23:06:00,
2013-06-14 14:21:00,59.2,50.0,30.19,WNW,294,6.0,8.0,71,0.00,,,0.00,weatherlink.com 1.10,2013-06-14 23:21:00,
2013-06-14 14:36:00,61.6,50.0,30.19,West,276,6.0,10.0,65,0.00,,,0.00,weatherlink.com 1.10,2013-06-14 23:36:00,
2013-06-14 14:51:00,60.0,49.0,30.19,NW,325,4.0,10.0,67,0.00,,,0.00,weatherlink.com 1.10,2013-06-14 23:51:00,
2013-06-14 15:06:00,60.3,49.0,30.19,NW,321,10.0,11.0,66,0.00,,,0.00,weatherlink.com 1.10,2013-06-15 00:06:00,
2013-06-14 15:21:00,59.0,48.0,30.19,WNW,294,8.0,11.0,68,0.00,,,0.00,weatherlink.com 1.10,2013-06-15 00:21:00,
2013-06-14 15:36:00,58.5,49.0,30.19,NW,318,4.0,12.0,70,0.00,,,0.00,weatherlink.com 1.10,2013-06-15 00:36:00,
2013-06-14 15:51:00,63.0,50.0,30.19,NNW,329,9.0,10.0,62,0.00,,,0.00,weatherlink.com 1.10,2013-06-15 00:51:00,
2013-06-14 16:06:00,63.4,50.0,30.19,NNW,334,7.0,10.0,61,0.00,,,0.00,weatherlink.com 1.10,2013-06-15 01:06:00,
2013-06-14 16:21:00,63.4,50.0,30.19,NNW,347,5.0,9.0,61,0.00,,,0.00,weatherlink.com 1.10,2013-06-15 01:21:00,
2013-06-14 16:36:00,63.3,49.0,30.19,North,355,5.0,9.0,61,0.00,,,0.00,weatherlink.com 1.10,2013-06-15 01:36:00,
2013-06-14 16:51:00,64.2,50.0,30.19,NNW,333,5.0,8.0,60,0.00,,,0.00,weatherlink.com 1.10,2013-06-15 01:51:00,
2013-06-14 17:07:00,64.9,50.0,30.19,NNW,341,6.0,7.0,58,0.00,,,0.00,weatherlink.com 1.10,2013-06-15 02:07:00,
2013-06-14 17:22:00,64.9,50.0,30.19,NW,321,4.0,9.0,58,0.00,,,0.00,weatherlink.com 1.10,2013-06-15 02:22:00,
2013-06-14 17:37:00,64.1,49.0,30.19,WNW,298,6.0,9.0,59,0.00,,,0.00,weatherlink.com 1.10,2013-06-15 02:37:00,
2013-06-14 17:52:00,62.0,49.0,30.19,West,277,6.0,8.0,63,0.00,,,0.00,weatherlink.com 1.10,2013-06-15 02:52:00,
2013-06-14 18:07:00,60.4,49.0,30.19,WNW,302,6.0,9.0,66,0.00,,,0.00,weatherlink.com 1.10,2013-06-15 03:07:00,
2013-06-14 18:22:00,60.9,49.0,30.19,WNW,293,9.0,9.0,65,0.00,,,0.00,weatherlink.com 1.10,2013-06-15 03:22:00,
2013-06-14 18:37:00,59.7,49.0,30.19,WNW,287,7.0,10.0,67,0.00,,,0.00,weatherlink.com 1.10,2013-06-15 03:37:00,
2013-06-14 18:52:00,59.7,49.0,30.19,WNW,289,7.0,7.0,67,0.00,,,0.00,weatherlink.com 1.10,2013-06-15 03:52:00,
2013-06-14 19:07:00,60.2,49.0,30.19,WNW,294,5.0,6.0,67,0.00,,,0.00,weatherlink.com 1.10,2013-06-15 04:07:00,
2013-06-14 19:22:00,60.5,49.0,30.20,WNW,295,4.0,7.0,66,0.00,,,0.00,weatherlink.com 1.10,2013-06-15 04:22:00,
2013-06-14 19:37:00,60.4,49.0,30.20,WNW,296,2.0,6.0,66,0.00,,,0.00,weatherlink.com 1.10,2013-06-15 04:37:00,
2013-06-14 19:52:00,60.4,49.0,30.20,WNW,296,0.0,3.0,67,0.00,,,0.00,weatherlink.com 1.10,2013-06-15 04:52:00,
2013-06-14 20:07:00,58.8,50.0,30.20,SE,125,2.0,6.0,72,0.00,,,0.00,weatherlink.com 1.10,2013-06-15 05:07:00,
2013-06-14 20:22:00,60.8,51.0,30.20,SE,138,6.0,12.0,69,0.00,,,0.00,weatherlink.com 1.10,2013-06-15 05:22:00,
2013-06-14 20:37:00,60.8,50.0,30.20,SE,130,6.0,11.0,68,0.00,,,0.00,weatherlink.com 1.10,2013-06-15 05:37:00,
2013-06-14 20:52:00,60.1,50.0,30.21,SE,146,6.0,11.0,69,0.00,,,0.00,weatherlink.com 1.10,2013-06-15 05:52:00,
2013-06-14 21:07:00,59.3,50.0,30.21,SE,125,5.0,13.0,71,0.00,,,0.00,weatherlink.com 1.10,2013-06-15 06:07:00,
2013-06-14 21:22:00,58.5,49.0,30.21,SE,137,4.0,10.0,72,0.00,,,0.00,weatherlink.com 1.10,2013-06-15 06:22:00,
2013-06-14 21:37:00,57.8,49.0,30.21,SE,129,4.0,8.0,73,0.00,,,0.00,weatherlink.com 1.10,2013-06-15 06:37:00,
2013-06-14 21:52:00,57.1,49.0,30.21,ESE,103,4.0,10.0,74,0.00,,,0.00,weatherlink.com 1.10,2013-06-15 06:52:00,
2013-06-14 22:07:00,56.8,49.0,30.22,SSE,154,2.0,8.0,75,0.00,,,0.00,weatherlink.com 1.10,2013-06-15 07:07:00,
2013-06-14 22:22:00,56.5,49.0,30.22,SE,129,0.0,6.0,76,0.00,,,0.00,weatherlink.com 1.10,2013-06-15 07:22:00,
2013-06-14 22:37:00,55.6,49.0,30.23,SE,136,4.0,6.0,77,0.00,,,0.00,weatherlink.com 1.10,2013-06-15 07:37:00,
2013-06-14 22:52:00,55.1,48.0,30.23,SSE,148,7.0,10.0,78,0.00,,,0.00,weatherlink.com 1.10,2013-06-15 07:52:00,
2013-06-14 23:07:00,54.9,48.0,30.23,SE,140,3.0,10.0,78,0.00,,,0.00,weatherlink.com 1.10,2013-06-15 08:07:00,
2013-06-14 23:22:00,54.7,48.0,30.23,SSE,148,4.0,13.0,78,0.00,,,0.00,weatherlink.com 1.10,2013-06-15 08:22:00,
2013-06-14 23:37:00,54.5,48.0,30.24,SE,144,6.0,9.0,79,0.00,,,0.00,weatherlink.com 1.10,2013-06-15 08:37:00,
2013-06-14 23:52:00,54.1,48.0,30.24,SE,146,7.0,8.0,79,0.00,,,0.00,weatherlink.com 1.10,2013-06-15 08:52:00,